Pagrindinis puslapis
METAR-TAF:

METAR-TAF

Oro uostai :

Mardin, Turkija

platuma: 37-13-58N, ilguma: 40-38-26E, Aukštis: 527 m

Dabartinis oras

Ataskaita buvo paskelbta 25 minutes, ne 03:50 UTC
Ramus vėjas
Temperatūra 24°C
Drėgmė 54%
Slėgis 1008 hPa
Matomumas 10 km arba daugiau
nėra debesų žemiau 1500 m ir nėra kamuolinių lietaus debesų

METAR: LTCR 160350Z 00000KT CAVOK 24/14 Q1008

Laikas: 07:15 (04:15 UTC)

Prognozė

Ataskaita buvo paskelbta 2 valandos ir 35 minutes, ne 01:40 UTC
Prognozė galioja nuo 16 metu 03 UTC su 16 metu 12 UTC
Vėjas 9 kt iš Pietvakarių
Matomumas 10 km arba daugiau
nėra debesų žemiau 1500 m ir nėra kamuolinių lietaus debesų

TAF: LTCR 160140Z 1603/1612 23009KT CAVOK

Orai ataskaitas ir orų prognozės (METAR, TAF).

turimą stotys yra geltonos ir raudonos taškus žemėlapyje.

Perkelti pele per norėdami pamatyti stoties vardą.

Tada spustelėkite, norėdami matyti oro stebėjimo ir prognozės.

Norėdami pakeisti žemėlapį: spustelėkite ant žalios mygtukų su juodo kryžiaus žemyn,; žalią mygtuką su brūkšneliu, jei norite nutolinti; arba žalių rodyklių gretimoms žemėlapius.


METAR-TAF: